sensor_id;sensor_type;location;lat;lon;timestamp;pressure;altitude;pressure_sealevel;temperature;humidity
64610;BME280;51019;46.090;6.350;2023-03-13T00:01:09;96611.50;;;7.42;100.00
64610;BME280;51019;46.090;6.350;2023-03-13T00:03:37;96614.81;;;7.44;100.00
64610;BME280;51019;46.090;6.350;2023-03-13T00:06:05;96595.13;;;7.40;100.00
64610;BME280;51019;46.090;6.350;2023-03-13T00:08:33;96608.66;;;7.34;100.00
64610;BME280;51019;46.090;6.350;2023-03-13T00:11:04;96601.09;;;7.31;100.00
64610;BME280;51019;46.090;6.350;2023-03-13T00:13:32;96541.75;;;6.78;100.00
64610;BME280;51019;46.090;6.350;2023-03-13T00:16:00;96604.03;;;7.37;100.00
64610;BME280;51019;46.090;6.350;2023-03-13T00:18:28;96588.06;;;7.31;100.00
64610;BME280;51019;46.090;6.350;2023-03-13T00:20:59;96602.34;;;7.47;100.00
64610;BME280;51019;46.090;6.350;2023-03-13T00:23:27;96604.38;;;7.44;100.00
64610;BME280;51019;46.090;6.350;2023-03-13T00:25:56;96611.34;;;7.54;100.00
64610;BME280;51019;46.090;6.350;2023-03-13T00:28:26;96602.41;;;7.68;100.00
64610;BME280;51019;46.090;6.350;2023-03-13T00:31:00;96585.56;;;7.72;100.00
64610;BME280;51019;46.090;6.350;2023-03-13T00:33:27;96591.13;;;7.79;100.00
64610;BME280;51019;46.090;6.350;2023-03-13T00:35:57;96515.53;;;7.24;100.00
64610;BME280;51019;46.090;6.350;2023-03-13T00:38:26;96512.00;;;7.14;100.00
64610;BME280;51019;46.090;6.350;2023-03-13T00:41:00;96556.50;;;7.34;100.00
64610;BME280;51019;46.090;6.350;2023-03-13T00:43:31;96599.59;;;7.60;100.00
64610;BME280;51019;46.090;6.350;2023-03-13T00:45:59;96544.81;;;7.17;100.00
64610;BME280;51019;46.090;6.350;2023-03-13T00:48:27;96560.53;;;7.38;100.00
64610;BME280;51019;46.090;6.350;2023-03-13T00:50:54;96582.78;;;7.53;100.00
64610;BME280;51019;46.090;6.350;2023-03-13T00:53:22;96604.22;;;7.56;100.00
64610;BME280;51019;46.090;6.350;2023-03-13T00:55:55;96606.63;;;7.48;100.00
64610;BME280;51019;46.090;6.350;2023-03-13T00:58:22;96600.69;;;7.46;100.00
64610;BME280;51019;46.090;6.350;2023-03-13T01:00:53;96590.38;;;7.56;100.00
64610;BME280;51019;46.090;6.350;2023-03-13T01:03:22;96596.63;;;7.64;100.00
64610;BME280;51019;46.090;6.350;2023-03-13T01:05:57;96592.78;;;7.80;100.00
64610;BME280;51019;46.090;6.350;2023-03-13T01:08:25;96593.88;;;7.77;100.00
64610;BME280;51019;46.090;6.350;2023-03-13T01:10:57;96573.06;;;7.55;100.00
64610;BME280;51019;46.090;6.350;2023-03-13T01:13:25;96592.91;;;7.78;100.00
64610;BME280;51019;46.090;6.350;2023-03-13T01:15:54;96582.88;;;7.62;100.00
64610;BME280;51019;46.090;6.350;2023-03-13T01:18:22;96574.19;;;7.73;100.00
64610;BME280;51019;46.090;6.350;2023-03-13T01:20:49;96581.47;;;7.90;100.00
64610;BME280;51019;46.090;6.350;2023-03-13T01:23:17;96587.44;;;7.81;100.00
64610;BME280;51019;46.090;6.350;2023-03-13T01:25:44;96585.16;;;7.88;100.00
64610;BME280;51019;46.090;6.350;2023-03-13T01:28:11;96508.06;;;7.31;100.00
64610;BME280;51019;46.090;6.350;2023-03-13T01:30:39;96580.38;;;7.93;100.00
64610;BME280;51019;46.090;6.350;2023-03-13T01:33:07;96540.09;;;7.86;100.00
64610;BME280;51019;46.090;6.350;2023-03-13T01:35:35;96567.63;;;8.11;100.00
64610;BME280;51019;46.090;6.350;2023-03-13T01:38:02;96575.63;;;7.98;100.00
64610;BME280;51019;46.090;6.350;2023-03-13T01:40:29;96573.34;;;8.05;100.00
64610;BME280;51019;46.090;6.350;2023-03-13T01:42:58;96574.72;;;7.88;100.00
64610;BME280;51019;46.090;6.350;2023-03-13T01:45:52;96562.69;;;7.76;100.00
64610;BME280;51019;46.090;6.350;2023-03-13T01:48:23;96561.66;;;7.67;100.00
64610;BME280;51019;46.090;6.350;2023-03-13T01:50:53;96552.72;;;7.70;100.00
64610;BME280;51019;46.090;6.350;2023-03-13T01:53:21;96553.06;;;7.76;100.00
64610;BME280;51019;46.090;6.350;2023-03-13T01:55:51;96559.59;;;7.71;100.00
64610;BME280;51019;46.090;6.350;2023-03-13T01:58:20;96556.69;;;7.64;100.00
64610;BME280;51019;46.090;6.350;2023-03-13T02:00:48;96554.06;;;7.64;100.00
64610;BME280;51019;46.090;6.350;2023-03-13T02:03:18;96508.53;;;7.25;100.00
64610;BME280;51019;46.090;6.350;2023-03-13T02:05:49;96529.44;;;7.46;100.00
64610;BME280;51019;46.090;6.350;2023-03-13T02:08:19;96537.72;;;7.62;100.00
64610;BME280;51019;46.090;6.350;2023-03-13T02:10:50;96545.09;;;7.46;100.00
64610;BME280;51019;46.090;6.350;2023-03-13T02:13:20;96531.19;;;7.56;100.00
64610;BME280;51019;46.090;6.350;2023-03-13T02:15:48;96457.53;;;7.00;100.00
64610;BME280;51019;46.090;6.350;2023-03-13T02:18:16;96420.16;;;6.79;100.00
64610;BME280;51019;46.090;6.350;2023-03-13T02:20:43;96458.56;;;7.20;100.00
64610;BME280;51019;46.090;6.350;2023-03-13T02:23:19;96426.25;;;7.00;100.00
64610;BME280;51019;46.090;6.350;2023-03-13T02:25:51;96534.63;;;7.57;100.00
64610;BME280;51019;46.090;6.350;2023-03-13T02:28:22;96523.94;;;7.60;100.00
64610;BME280;51019;46.090;6.350;2023-03-13T02:30:53;96513.25;;;7.42;100.00
64610;BME280;51019;46.090;6.350;2023-03-13T02:33:26;96442.63;;;7.02;100.00
64610;BME280;51019;46.090;6.350;2023-03-13T02:35:54;96484.97;;;7.26;100.00
64610;BME280;51019;46.090;6.350;2023-03-13T02:38:24;96476.66;;;7.33;100.00
64610;BME280;51019;46.090;6.350;2023-03-13T02:40:55;96463.81;;;7.41;100.00
64610;BME280;51019;46.090;6.350;2023-03-13T02:43:26;96414.34;;;6.98;100.00
64610;BME280;51019;46.090;6.350;2023-03-13T02:46:04;96469.31;;;7.26;100.00
64610;BME280;51019;46.090;6.350;2023-03-13T02:48:33;96471.56;;;7.31;100.00
64610;BME280;51019;46.090;6.350;2023-03-13T02:51:03;96460.91;;;7.23;100.00
64610;BME280;51019;46.090;6.350;2023-03-13T02:53:31;96461.66;;;7.14;100.00
64610;BME280;51019;46.090;6.350;2023-03-13T02:56:02;96471.44;;;7.33;100.00
64610;BME280;51019;46.090;6.350;2023-03-13T02:58:37;96475.97;;;7.19;100.00
64610;BME280;51019;46.090;6.350;2023-03-13T03:01:05;96480.50;;;7.70;100.00
64610;BME280;51019;46.090;6.350;2023-03-13T03:03:33;96496.00;;;8.03;100.00
64610;BME280;51019;46.090;6.350;2023-03-13T03:06:01;96502.38;;;8.11;100.00
64610;BME280;51019;46.090;6.350;2023-03-13T03:08:30;96508.22;;;8.24;100.00
64610;BME280;51019;46.090;6.350;2023-03-13T03:10:57;96474.94;;;7.95;100.00
64610;BME280;51019;46.090;6.350;2023-03-13T03:13:27;96523.03;;;8.34;100.00
64610;BME280;51019;46.090;6.350;2023-03-13T03:15:54;96395.91;;;7.63;100.00
64610;BME280;51019;46.090;6.350;2023-03-13T03:18:22;96491.31;;;8.28;100.00
64610;BME280;51019;46.090;6.350;2023-03-13T03:20:49;96510.00;;;8.23;100.00
64610;BME280;51019;46.090;6.350;2023-03-13T03:23:17;96453.94;;;7.76;100.00
64610;BME280;51019;46.090;6.350;2023-03-13T03:25:44;96496.03;;;8.13;100.00
64610;BME280;51019;46.090;6.350;2023-03-13T03:28:11;96498.66;;;8.13;100.00
64610;BME280;51019;46.090;6.350;2023-03-13T03:30:40;96482.13;;;8.24;99.51
64610;BME280;51019;46.090;6.350;2023-03-13T03:33:08;96482.88;;;8.35;100.00
64610;BME280;51019;46.090;6.350;2023-03-13T03:35:35;96472.81;;;8.31;100.00
64610;BME280;51019;46.090;6.350;2023-03-13T03:38:05;96464.34;;;8.18;100.00
64610;BME280;51019;46.090;6.350;2023-03-13T03:40:32;96445.22;;;7.87;100.00
64610;BME280;51019;46.090;6.350;2023-03-13T03:43:00;96419.44;;;7.73;100.00
64610;BME280;51019;46.090;6.350;2023-03-13T03:45:27;96422.00;;;7.63;100.00
64610;BME280;51019;46.090;6.350;2023-03-13T03:47:57;96471.19;;;7.88;100.00
64610;BME280;51019;46.090;6.350;2023-03-13T03:50:25;96352.66;;;7.19;100.00
64610;BME280;51019;46.090;6.350;2023-03-13T03:52:52;96477.06;;;7.90;100.00
64610;BME280;51019;46.090;6.350;2023-03-13T03:55:19;96472.38;;;7.84;100.00
64610;BME280;51019;46.090;6.350;2023-03-13T03:57:47;96457.38;;;7.77;100.00
64610;BME280;51019;46.090;6.350;2023-03-13T04:00:14;96433.13;;;7.65;100.00
64610;BME280;51019;46.090;6.350;2023-03-13T04:02:43;96432.31;;;7.64;100.00
64610;BME280;51019;46.090;6.350;2023-03-13T04:05:13;96434.91;;;7.64;100.00
64610;BME280;51019;46.090;6.350;2023-03-13T04:07:40;96442.91;;;7.52;100.00
64610;BME280;51019;46.090;6.350;2023-03-13T04:10:09;96442.47;;;7.68;100.00
64610;BME280;51019;46.090;6.350;2023-03-13T04:12:36;96450.28;;;7.68;100.00
64610;BME280;51019;46.090;6.350;2023-03-13T04:15:04;96444.44;;;7.96;100.00
64610;BME280;51019;46.090;6.350;2023-03-13T04:17:32;96457.38;;;7.97;100.00
64610;BME280;51019;46.090;6.350;2023-03-13T04:20:00;96475.75;;;7.96;100.00
64610;BME280;51019;46.090;6.350;2023-03-13T04:22:29;96486.84;;;7.88;100.00
64610;BME280;51019;46.090;6.350;2023-03-13T04:24:58;96485.88;;;7.89;100.00
64610;BME280;51019;46.090;6.350;2023-03-13T04:27:25;96467.34;;;7.72;100.00
64610;BME280;51019;46.090;6.350;2023-03-13T04:29:52;96478.38;;;7.75;100.00
64610;BME280;51019;46.090;6.350;2023-03-13T04:32:20;96348.94;;;7.01;100.00
64610;BME280;51019;46.090;6.350;2023-03-13T04:34:47;96461.63;;;7.78;100.00
64610;BME280;51019;46.090;6.350;2023-03-13T04:37:15;96463.19;;;7.69;100.00
64610;BME280;51019;46.090;6.350;2023-03-13T04:39:44;96462.84;;;7.74;100.00
64610;BME280;51019;46.090;6.350;2023-03-13T04:42:12;96477.59;;;7.84;100.00
64610;BME280;51019;46.090;6.350;2023-03-13T04:44:39;96365.31;;;6.91;100.00
64610;BME280;51019;46.090;6.350;2023-03-13T04:47:06;96449.03;;;7.62;100.00
64610;BME280;51019;46.090;6.350;2023-03-13T04:49:33;96477.91;;;7.70;100.00
64610;BME280;51019;46.090;6.350;2023-03-13T04:52:01;96471.53;;;7.63;100.00
64610;BME280;51019;46.090;6.350;2023-03-13T04:54:28;96475.75;;;7.54;100.00
64610;BME280;51019;46.090;6.350;2023-03-13T04:56:57;96477.13;;;7.58;100.00
64610;BME280;51019;46.090;6.350;2023-03-13T04:59:25;96451.84;;;7.38;100.00
64610;BME280;51019;46.090;6.350;2023-03-13T05:01:52;96363.47;;;6.71;100.00
64610;BME280;51019;46.090;6.350;2023-03-13T05:04:22;96471.44;;;7.33;100.00
64610;BME280;51019;46.090;6.350;2023-03-13T05:06:50;96487.09;;;7.33;100.00
64610;BME280;51019;46.090;6.350;2023-03-13T05:09:17;96390.38;;;6.72;100.00
64610;BME280;51019;46.090;6.350;2023-03-13T05:11:44;96485.16;;;7.35;100.00
64610;BME280;51019;46.090;6.350;2023-03-13T05:14:14;96482.50;;;7.46;100.00
64610;BME280;51019;46.090;6.350;2023-03-13T05:16:41;96434.31;;;7.61;100.00
64610;BME280;51019;46.090;6.350;2023-03-13T05:19:08;96468.75;;;7.76;100.00
64610;BME280;51019;46.090;6.350;2023-03-13T05:21:36;96472.38;;;7.84;100.00
64610;BME280;51019;46.090;6.350;2023-03-13T05:24:03;96448.72;;;7.55;100.00
64610;BME280;51019;46.090;6.350;2023-03-13T05:26:31;96448.97;;;7.73;100.00
64610;BME280;51019;46.090;6.350;2023-03-13T05:28:58;96368.88;;;7.43;100.00
64610;BME280;51019;46.090;6.350;2023-03-13T05:31:27;96431.66;;;7.72;100.00
64610;BME280;51019;46.090;6.350;2023-03-13T05:33:54;96423.34;;;7.78;100.00
64610;BME280;51019;46.090;6.350;2023-03-13T05:36:22;96392.00;;;7.57;100.00
64610;BME280;51019;46.090;6.350;2023-03-13T05:38:49;96359.06;;;7.15;100.00
64610;BME280;51019;46.090;6.350;2023-03-13T05:41:20;96406.41;;;7.52;100.00
64610;BME280;51019;46.090;6.350;2023-03-13T05:43:47;96383.25;;;7.38;100.00
64610;BME280;51019;46.090;6.350;2023-03-13T05:46:14;96359.34;;;7.33;100.00
64610;BME280;51019;46.090;6.350;2023-03-13T05:48:44;96415.16;;;7.72;100.00
64610;BME280;51019;46.090;6.350;2023-03-13T05:51:11;96405.44;;;7.74;100.00
64610;BME280;51019;46.090;6.350;2023-03-13T05:53:39;96312.31;;;7.02;100.00
64610;BME280;51019;46.090;6.350;2023-03-13T05:56:06;96405.16;;;7.97;100.00
64610;BME280;51019;46.090;6.350;2023-03-13T05:58:33;96398.13;;;7.88;100.00
64610;BME280;51019;46.090;6.350;2023-03-13T06:01:06;96390.53;;;7.85;100.00
64610;BME280;51019;46.090;6.350;2023-03-13T06:03:35;96396.78;;;7.73;100.00
64610;BME280;51019;46.090;6.350;2023-03-13T06:06:04;96401.00;;;7.64;100.00
64610;BME280;51019;46.090;6.350;2023-03-13T06:08:33;96398.25;;;7.87;100.00
64610;BME280;51019;46.090;6.350;2023-03-13T06:11:02;96392.31;;;7.85;100.00
64610;BME280;51019;46.090;6.350;2023-03-13T06:13:29;96395.66;;;7.66;100.00
64610;BME280;51019;46.090;6.350;2023-03-13T06:15:57;96371.59;;;7.62;100.00
64610;BME280;51019;46.090;6.350;2023-03-13T06:18:25;96378.78;;;7.70;100.00
64610;BME280;51019;46.090;6.350;2023-03-13T06:20:56;96371.50;;;7.94;100.00
64610;BME280;51019;46.090;6.350;2023-03-13T06:23:26;96358.22;;;8.07;100.00
64610;BME280;51019;46.090;6.350;2023-03-13T06:25:54;96355.03;;;8.03;100.00
64610;BME280;51019;46.090;6.350;2023-03-13T06:28:21;96336.41;;;7.78;100.00
64610;BME280;51019;46.090;6.350;2023-03-13T06:30:49;96349.75;;;7.84;100.00
64610;BME280;51019;46.090;6.350;2023-03-13T06:33:16;96353.31;;;7.83;100.00
64610;BME280;51019;46.090;6.350;2023-03-13T06:35:44;96356.63;;;7.85;100.00
64610;BME280;51019;46.090;6.350;2023-03-13T06:38:11;96358.28;;;7.86;100.00
64610;BME280;51019;46.090;6.350;2023-03-13T06:40:41;96347.84;;;7.86;100.00
64610;BME280;51019;46.090;6.350;2023-03-13T06:43:08;96291.16;;;7.68;100.00
64610;BME280;51019;46.090;6.350;2023-03-13T06:45:36;96336.50;;;8.37;100.00
64610;BME280;51019;46.090;6.350;2023-03-13T06:48:04;96238.94;;;7.79;100.00
64610;BME280;51019;46.090;6.350;2023-03-13T06:50:31;96335.53;;;8.38;100.00
64610;BME280;51019;46.090;6.350;2023-03-13T06:52:58;96336.41;;;8.48;100.00
64610;BME280;51019;46.090;6.350;2023-03-13T06:55:25;96295.50;;;8.28;100.00
64610;BME280;51019;46.090;6.350;2023-03-13T06:57:55;96304.03;;;8.30;100.00
64610;BME280;51019;46.090;6.350;2023-03-13T07:00:23;96330.38;;;8.57;100.00
64610;BME280;51019;46.090;6.350;2023-03-13T07:02:50;96310.84;;;8.61;100.00
64610;BME280;51019;46.090;6.350;2023-03-13T07:05:18;96341.94;;;9.03;100.00
64610;BME280;51019;46.090;6.350;2023-03-13T07:07:46;96334.25;;;9.30;100.00
64610;BME280;51019;46.090;6.350;2023-03-13T07:10:14;96293.19;;;9.50;100.00
64610;BME280;51019;46.090;6.350;2023-03-13T07:12:41;96335.28;;;9.66;100.00
64610;BME280;51019;46.090;6.350;2023-03-13T07:15:11;96317.53;;;9.70;100.00
64610;BME280;51019;46.090;6.350;2023-03-13T07:17:38;96330.00;;;9.86;100.00
64610;BME280;51019;46.090;6.350;2023-03-13T07:20:05;96326.78;;;10.01;100.00
64610;BME280;51019;46.090;6.350;2023-03-13T07:22:35;96321.78;;;10.45;100.00
64610;BME280;51019;46.090;6.350;2023-03-13T07:25:03;96325.34;;;10.89;100.00
64610;BME280;51019;46.090;6.350;2023-03-13T07:27:31;96316.94;;;11.39;100.00
64610;BME280;51019;46.090;6.350;2023-03-13T07:30:00;96316.88;;;11.56;100.00
64610;BME280;51019;46.090;6.350;2023-03-13T07:32:32;96293.91;;;11.76;100.00
64610;BME280;51019;46.090;6.350;2023-03-13T07:34:58;96271.09;;;12.11;100.00
64610;BME280;51019;46.090;6.350;2023-03-13T07:37:27;96205.09;;;12.06;92.10
64610;BME280;51019;46.090;6.350;2023-03-13T07:39:55;96287.75;;;12.94;90.39
64610;BME280;51019;46.090;6.350;2023-03-13T07:42:22;96261.88;;;12.57;91.13
64610;BME280;51019;46.090;6.350;2023-03-13T07:44:50;96313.09;;;12.45;94.23
64610;BME280;51019;46.090;6.350;2023-03-13T07:47:17;96311.97;;;12.47;95.89
64610;BME280;51019;46.090;6.350;2023-03-13T07:49:46;96238.06;;;12.00;97.77
64610;BME280;51019;46.090;6.350;2023-03-13T07:52:14;96291.34;;;12.26;95.98
64610;BME280;51019;46.090;6.350;2023-03-13T07:54:42;96263.06;;;12.20;95.31
64610;BME280;51019;46.090;6.350;2023-03-13T07:57:09;96259.91;;;12.09;91.54
64610;BME280;51019;46.090;6.350;2023-03-13T07:59:37;96252.78;;;12.27;84.18
64610;BME280;51019;46.090;6.350;2023-03-13T08:02:05;96248.56;;;12.50;79.38
64610;BME280;51019;46.090;6.350;2023-03-13T08:04:32;96165.03;;;12.12;83.31
64610;BME280;51019;46.090;6.350;2023-03-13T08:07:01;96164.06;;;12.21;80.48
64610;BME280;51019;46.090;6.350;2023-03-13T08:09:31;96220.97;;;12.87;79.00
64610;BME280;51019;46.090;6.350;2023-03-13T08:11:58;96257.63;;;12.88;80.36
64610;BME280;51019;46.090;6.350;2023-03-13T08:14:26;96161.28;;;12.30;82.09
64610;BME280;51019;46.090;6.350;2023-03-13T08:16:53;96178.72;;;12.56;81.63
64610;BME280;51019;46.090;6.350;2023-03-13T08:19:21;96092.97;;;12.14;78.30
64610;BME280;51019;46.090;6.350;2023-03-13T08:21:48;96256.00;;;13.03;79.29
64610;BME280;51019;46.090;6.350;2023-03-13T08:24:20;96263.22;;;13.58;76.00
64610;BME280;51019;46.090;6.350;2023-03-13T08:26:47;96267.66;;;13.74;76.31
64610;BME280;51019;46.090;6.350;2023-03-13T08:29:14;96277.50;;;13.80;76.77
64610;BME280;51019;46.090;6.350;2023-03-13T08:31:43;96275.63;;;13.25;77.98
64610;BME280;51019;46.090;6.350;2023-03-13T08:34:12;96245.47;;;13.12;77.92
64610;BME280;51019;46.090;6.350;2023-03-13T08:36:40;96244.22;;;13.16;76.05
64610;BME280;51019;46.090;6.350;2023-03-13T08:39:10;96275.28;;;13.36;75.96
64610;BME280;51019;46.090;6.350;2023-03-13T08:41:40;96274.16;;;13.31;74.26
64610;BME280;51019;46.090;6.350;2023-03-13T08:44:09;96270.50;;;13.40;74.61
64610;BME280;51019;46.090;6.350;2023-03-13T08:46:37;96230.22;;;13.31;75.25
64610;BME280;51019;46.090;6.350;2023-03-13T08:49:06;96205.69;;;13.39;76.09
64610;BME280;51019;46.090;6.350;2023-03-13T08:51:34;96227.50;;;13.72;76.78
64610;BME280;51019;46.090;6.350;2023-03-13T08:54:02;96154.25;;;13.04;77.73
64610;BME280;51019;46.090;6.350;2023-03-13T08:56:30;96209.63;;;13.51;81.32
64610;BME280;51019;46.090;6.350;2023-03-13T08:59:03;96217.88;;;13.24;81.72
64610;BME280;51019;46.090;6.350;2023-03-13T09:01:32;96170.81;;;13.37;80.95
64610;BME280;51019;46.090;6.350;2023-03-13T09:03:59;96145.31;;;13.37;81.07
64610;BME280;51019;46.090;6.350;2023-03-13T09:06:27;96180.59;;;13.75;79.28
64610;BME280;51019;46.090;6.350;2023-03-13T09:08:55;96185.47;;;13.78;79.84
64610;BME280;51019;46.090;6.350;2023-03-13T09:11:24;96185.94;;;13.90;75.23
64610;BME280;51019;46.090;6.350;2023-03-13T09:13:54;96188.09;;;13.87;80.31
64610;BME280;51019;46.090;6.350;2023-03-13T09:16:26;96166.22;;;13.78;80.54
64610;BME280;51019;46.090;6.350;2023-03-13T09:18:54;96159.97;;;13.79;79.30
64610;BME280;51019;46.090;6.350;2023-03-13T09:21:24;96124.69;;;13.57;80.13
64610;BME280;51019;46.090;6.350;2023-03-13T09:23:51;96152.28;;;13.69;79.36
64610;BME280;51019;46.090;6.350;2023-03-13T09:26:19;96106.16;;;13.34;80.75
64610;BME280;51019;46.090;6.350;2023-03-13T09:28:47;96146.72;;;13.64;82.36
64610;BME280;51019;46.090;6.350;2023-03-13T09:31:15;96146.34;;;13.67;82.05
64610;BME280;51019;46.090;6.350;2023-03-13T09:33:46;96139.91;;;14.09;82.22
64610;BME280;51019;46.090;6.350;2023-03-13T09:36:15;96109.72;;;14.20;81.65
64610;BME280;51019;46.090;6.350;2023-03-13T09:38:43;96114.75;;;14.29;82.28
64610;BME280;51019;46.090;6.350;2023-03-13T09:41:23;96132.53;;;14.27;82.55
64610;BME280;51019;46.090;6.350;2023-03-13T09:43:57;96097.97;;;15.05;79.35
64610;BME280;51019;46.090;6.350;2023-03-13T09:46:32;96118.19;;;15.86;74.56
64610;BME280;51019;46.090;6.350;2023-03-13T09:49:11;96101.91;;;15.68;74.17
64610;BME280;51019;46.090;6.350;2023-03-13T09:51:42;96062.28;;;15.39;72.42
64610;BME280;51019;46.090;6.350;2023-03-13T09:54:23;96108.81;;;16.20;70.58
64610;BME280;51019;46.090;6.350;2023-03-13T09:56:55;96089.75;;;16.67;68.27
64610;BME280;51019;46.090;6.350;2023-03-13T09:59:28;96119.03;;;16.65;69.18
64610;BME280;51019;46.090;6.350;2023-03-13T10:02:03;96103.88;;;17.02;67.17
64610;BME280;51019;46.090;6.350;2023-03-13T10:04:38;96099.09;;;17.19;63.10
64610;BME280;51019;46.090;6.350;2023-03-13T10:07:09;96096.03;;;17.15;64.21
64610;BME280;51019;46.090;6.350;2023-03-13T10:09:38;96078.47;;;16.58;65.78
64610;BME280;51019;46.090;6.350;2023-03-13T10:12:11;96076.63;;;16.80;65.34
64610;BME280;51019;46.090;6.350;2023-03-13T10:14:43;96079.53;;;17.20;64.13
64610;BME280;51019;46.090;6.350;2023-03-13T10:17:21;96073.78;;;16.39;63.96
64610;BME280;51019;46.090;6.350;2023-03-13T10:19:58;96062.81;;;17.54;59.77
64610;BME280;51019;46.090;6.350;2023-03-13T10:22:27;96070.59;;;17.62;60.14
64610;BME280;51019;46.090;6.350;2023-03-13T10:25:02;96039.00;;;18.34;59.11
64610;BME280;51019;46.090;6.350;2023-03-13T10:27:40;96045.75;;;17.28;58.83
64610;BME280;51019;46.090;6.350;2023-03-13T10:30:27;96046.38;;;19.18;55.86
64610;BME280;51019;46.090;6.350;2023-03-13T10:32:58;96035.59;;;18.60;57.00
64610;BME280;51019;46.090;6.350;2023-03-13T10:35:33;96026.16;;;18.44;56.29
64610;BME280;51019;46.090;6.350;2023-03-13T10:38:04;95981.00;;;16.90;61.15
64610;BME280;51019;46.090;6.350;2023-03-13T10:40:32;96027.56;;;17.12;61.48
64610;BME280;51019;46.090;6.350;2023-03-13T10:43:02;95980.78;;;16.57;61.79
64610;BME280;51019;46.090;6.350;2023-03-13T10:45:35;95970.72;;;17.56;60.24
64610;BME280;51019;46.090;6.350;2023-03-13T10:48:11;96011.97;;;17.71;60.23
64610;BME280;51019;46.090;6.350;2023-03-13T10:50:43;95999.34;;;17.26;62.83
64610;BME280;51019;46.090;6.350;2023-03-13T10:53:24;95978.81;;;17.41;60.85
64610;BME280;51019;46.090;6.350;2023-03-13T10:56:02;95970.00;;;17.88;59.54
64610;BME280;51019;46.090;6.350;2023-03-13T10:58:33;95991.88;;;18.30;57.81
64610;BME280;51019;46.090;6.350;2023-03-13T11:01:14;95984.31;;;18.46;56.25
64610;BME280;51019;46.090;6.350;2023-03-13T11:03:43;95967.25;;;19.20;54.01
64610;BME280;51019;46.090;6.350;2023-03-13T11:06:27;95968.59;;;18.78;54.90
64610;BME280;51019;46.090;6.350;2023-03-13T11:09:02;95977.06;;;19.19;54.87
64610;BME280;51019;46.090;6.350;2023-03-13T11:11:30;95941.81;;;20.45;50.85
64610;BME280;51019;46.090;6.350;2023-03-13T11:14:14;95959.72;;;19.68;52.38
64610;BME280;51019;46.090;6.350;2023-03-13T11:16:45;95959.00;;;19.41;52.74
64610;BME280;51019;46.090;6.350;2023-03-13T11:19:36;95960.47;;;18.27;55.60
64610;BME280;51019;46.090;6.350;2023-03-13T11:22:32;95917.00;;;18.01;58.21
64610;BME280;51019;46.090;6.350;2023-03-13T11:25:16;95946.56;;;18.11;57.17
64610;BME280;51019;46.090;6.350;2023-03-13T11:27:54;95946.16;;;18.54;58.50
64610;BME280;51019;46.090;6.350;2023-03-13T11:30:49;95944.16;;;19.20;55.19
64610;BME280;51019;46.090;6.350;2023-03-13T11:33:27;95951.25;;;20.16;53.66
64610;BME280;51019;46.090;6.350;2023-03-13T11:36:01;95950.38;;;20.22;53.09
64610;BME280;51019;46.090;6.350;2023-03-13T11:38:35;95856.03;;;21.64;47.71
64610;BME280;51019;46.090;6.350;2023-03-13T11:41:16;95943.47;;;22.80;47.19
64610;BME280;51019;46.090;6.350;2023-03-13T11:44:04;95863.34;;;21.68;46.39
64610;BME280;51019;46.090;6.350;2023-03-13T11:46:44;95936.91;;;20.66;49.97
64610;BME280;51019;46.090;6.350;2023-03-13T11:49:35;95940.13;;;21.12;51.48
64610;BME280;51019;46.090;6.350;2023-03-13T11:52:11;95931.41;;;21.71;47.91
64610;BME280;51019;46.090;6.350;2023-03-13T11:54:53;95922.66;;;21.52;49.21
64610;BME280;51019;46.090;6.350;2023-03-13T11:57:27;95898.69;;;21.64;47.96
64610;BME280;51019;46.090;6.350;2023-03-13T12:00:13;95921.31;;;22.03;46.51
64610;BME280;51019;46.090;6.350;2023-03-13T12:02:47;95887.31;;;20.72;49.54
64610;BME280;51019;46.090;6.350;2023-03-13T12:05:18;95898.16;;;20.27;50.77
64610;BME280;51019;46.090;6.350;2023-03-13T12:07:50;95846.75;;;20.09;50.88
64610;BME280;51019;46.090;6.350;2023-03-13T12:10:25;95875.13;;;21.13;50.44
64610;BME280;51019;46.090;6.350;2023-03-13T12:13:00;95836.22;;;21.12;49.91
64610;BME280;51019;46.090;6.350;2023-03-13T12:15:33;95861.09;;;21.06;49.45
64610;BME280;51019;46.090;6.350;2023-03-13T12:18:08;95832.56;;;19.90;52.54
64610;BME280;51019;46.090;6.350;2023-03-13T12:20:43;95842.38;;;20.14;51.20
64610;BME280;51019;46.090;6.350;2023-03-13T12:23:18;95823.47;;;19.41;51.94
64610;BME280;51019;46.090;6.350;2023-03-13T12:25:52;95728.72;;;19.04;52.81
64610;BME280;51019;46.090;6.350;2023-03-13T12:28:26;95821.69;;;20.96;48.54
64610;BME280;51019;46.090;6.350;2023-03-13T12:31:00;95823.25;;;20.67;48.15
64610;BME280;51019;46.090;6.350;2023-03-13T12:33:34;95772.91;;;21.90;46.23
64610;BME280;51019;46.090;6.350;2023-03-13T12:36:08;95808.91;;;21.88;47.41
64610;BME280;51019;46.090;6.350;2023-03-13T12:38:40;95798.47;;;21.15;47.39
64610;BME280;51019;46.090;6.350;2023-03-13T12:41:18;95786.72;;;21.64;46.27
64610;BME280;51019;46.090;6.350;2023-03-13T12:43:50;95783.16;;;22.28;46.42
64610;BME280;51019;46.090;6.350;2023-03-13T12:46:33;95774.72;;;21.43;46.19
64610;BME280;51019;46.090;6.350;2023-03-13T12:49:46;95780.00;;;21.73;46.92
64610;BME280;51019;46.090;6.350;2023-03-13T12:52:49;95760.31;;;22.72;42.59
64610;BME280;51019;46.090;6.350;2023-03-13T12:55:34;95749.81;;;22.94;43.58
64610;BME280;51019;46.090;6.350;2023-03-13T12:58:11;95743.31;;;23.18;43.36
64610;BME280;51019;46.090;6.350;2023-03-13T13:00:43;95726.44;;;22.09;44.31
64610;BME280;51019;46.090;6.350;2023-03-13T13:03:23;95706.28;;;22.54;43.32
64610;BME280;51019;46.090;6.350;2023-03-13T13:06:02;95659.34;;;23.31;42.69
64610;BME280;51019;46.090;6.350;2023-03-13T13:08:36;95676.84;;;23.39;42.32
64610;BME280;51019;46.090;6.350;2023-03-13T13:17:54;95631.16;;;23.40;43.91
64610;BME280;51019;46.090;6.350;2023-03-13T13:23:33;95635.50;;;23.80;42.89
64610;BME280;51019;46.090;6.350;2023-03-13T13:26:48;95623.09;;;24.12;41.89
64610;BME280;51019;46.090;6.350;2023-03-13T13:32:48;95611.94;;;23.27;42.76